Time;durP1;ratioP1;P1;durP2;ratioP2;P2;SDS_P1;SDS_P2;PMS_P1;PMS_P2;Temp;Humidity;BMP_temperature;BMP_pressure;BME280_temperature;BME280_humidity;BME280_pressure;Samples;Min_cycle;Max_cycle;Signal;HPM_P1;HPM_P2
2023/03/16 00:01:30;;;;;;;7.60;4.88;;;;;;;5.32;65.82;101904.63;6101026;19;20031;-72
2023/03/16 00:03:36;;;;;;;8.13;5.53;;;;;;;5.32;65.58;101897.69;6098319;19;20011;-72
2023/03/16 00:05:41;;;;;;;9.65;5.30;;;;;;;5.35;65.27;101909.84;6102874;19;20003;-72
2023/03/16 00:07:46;;;;;;;13.55;5.65;;;;;;;5.36;65.67;101893.34;6098166;19;20010;-72
2023/03/16 00:09:50;;;;;;;9.88;5.63;;;;;;;5.31;65.81;101895.94;6099693;19;20015;-72
2023/03/16 00:11:55;;;;;;;12.52;6.38;;;;;;;5.34;65.62;101895.06;6099588;19;20531;-72
2023/03/16 00:14:03;;;;;;;9.73;5.28;;;;;;;5.30;66.13;101885.53;6099144;19;20015;-72
2023/03/16 00:16:15;;;;;;;8.57;5.18;;;;;;;5.27;66.37;101889.03;6099188;19;20077;-72
2023/03/16 00:18:26;;;;;;;9.35;5.82;;;;;;;5.27;66.25;101879.47;6098460;19;20102;-72
2023/03/16 00:20:31;;;;;;;11.60;5.38;;;;;;;5.30;66.32;101885.53;6096183;19;20828;-72
2023/03/16 00:22:38;;;;;;;9.45;5.00;;;;;;;5.32;66.50;101881.16;6097507;19;20018;-71
2023/03/16 00:24:46;;;;;;;9.65;5.45;;;;;;;5.33;66.27;101882.91;6097893;19;20006;-72
2023/03/16 00:26:53;;;;;;;8.88;4.90;;;;;;;5.32;66.48;101888.97;6099895;19;20007;-73
2023/03/16 00:28:58;;;;;;;11.55;5.82;;;;;;;5.29;66.55;101887.25;6098623;19;20022;-73
2023/03/16 00:31:03;;;;;;;8.95;5.70;;;;;;;5.32;67.07;101881.16;6097682;19;20017;-72
2023/03/16 00:33:09;;;;;;;10.32;5.97;;;;;;;5.32;66.92;101868.13;6096548;19;20017;-72
2023/03/16 00:35:17;;;;;;;11.98;5.25;;;;;;;5.35;66.80;101862.94;6079405;19;20777;-72
2023/03/16 00:37:24;;;;;;;12.43;5.97;;;;;;;5.34;67.17;101867.25;6097531;19;20014;-72
2023/03/16 00:39:29;;;;;;;11.57;6.05;;;;;;;5.31;67.46;101863.81;6097066;19;20011;-72
2023/03/16 00:41:36;;;;;;;12.05;5.68;;;;;;;5.31;67.77;101859.44;6096610;19;20042;-72
2023/03/16 00:43:44;;;;;;;11.82;5.72;;;;;;;5.30;68.04;101865.56;6095101;19;20006;-74
2023/03/16 00:45:49;;;;;;;9.50;5.40;;;;;;;5.31;67.87;101853.38;6097599;19;20007;-72
2023/03/16 00:47:55;;;;;;;10.32;5.55;;;;;;;5.33;68.03;101854.25;6097781;19;20011;-72
2023/03/16 00:50:00;;;;;;;11.25;5.80;;;;;;;5.29;68.04;101850.75;6085422;19;20010;-72
2023/03/16 00:52:09;;;;;;;11.82;5.85;;;;;;;5.30;68.33;101857.72;6096903;19;20022;-72
2023/03/16 00:54:14;;;;;;;10.38;5.93;;;;;;;5.31;68.54;101845.56;6097076;19;20584;-72
2023/03/16 00:56:19;;;;;;;12.63;6.20;;;;;;;5.27;68.91;101844.72;6097926;19;20019;-72
2023/03/16 00:58:23;;;;;;;13.35;5.65;;;;;;;5.32;68.84;101840.38;6097874;19;20021;-72
2023/03/16 01:00:29;;;;;;;10.80;5.45;;;;;;;5.35;68.95;101836.88;6098120;19;20010;-72
2023/03/16 01:02:35;;;;;;;13.27;5.45;;;;;;;5.35;68.65;101840.34;6097692;19;20027;-72
2023/03/16 01:04:41;;;;;;;9.80;5.72;;;;;;;5.32;68.77;101829.03;6098135;19;20007;-72
2023/03/16 01:06:46;;;;;;;9.15;5.20;;;;;;;5.32;69.16;101829.94;6100131;19;20038;-72
2023/03/16 01:08:53;;;;;;;9.30;5.50;;;;;;;5.33;69.49;101825.59;6099529;19;20060;-72
2023/03/16 01:10:58;;;;;;;10.38;5.50;;;;;;;5.36;69.50;101830.78;6098985;19;20015;-72
2023/03/16 01:13:03;;;;;;;12.10;6.28;;;;;;;5.32;69.85;101826.44;6097234;19;20505;-72
2023/03/16 01:15:10;;;;;;;10.75;5.65;;;;;;;5.34;69.68;101827.31;6098644;19;20556;-72
2023/03/16 01:17:16;;;;;;;12.32;6.05;;;;;;;5.36;69.59;101826.44;6095314;19;20117;-72
2023/03/16 01:19:21;;;;;;;11.27;5.50;;;;;;;5.32;70.58;101822.13;6097452;19;20014;-72
2023/03/16 01:21:26;;;;;;;13.65;6.30;;;;;;;5.34;70.79;101824.69;6098820;19;20225;-72
2023/03/16 01:23:31;;;;;;;10.98;6.03;;;;;;;5.34;70.95;101812.53;6097353;19;20014;-72
2023/03/16 01:25:39;;;;;;;10.90;5.97;;;;;;;5.36;71.20;101816.00;6096729;19;20569;-72
2023/03/16 01:27:45;;;;;;;11.80;6.63;;;;;;;5.38;71.19;101816.00;6097263;19;20031;-72
2023/03/16 01:29:50;;;;;;;10.38;5.95;;;;;;;5.40;71.42;101806.47;6097114;19;20011;-72
2023/03/16 01:31:55;;;;;;;9.75;5.80;;;;;;;5.42;70.86;101804.69;6096419;19;20006;-72
2023/03/16 01:34:02;;;;;;;12.38;6.32;;;;;;;5.39;71.40;101809.91;6101960;19;20018;-73
2023/03/16 01:36:10;;;;;;;10.27;6.10;;;;;;;5.37;71.54;101802.13;6102728;19;20039;-73
2023/03/16 01:38:15;;;;;;;11.82;6.07;;;;;;;5.41;71.41;101797.75;6103013;19;20014;-72
2023/03/16 01:40:20;;;;;;;10.95;5.57;;;;;;;5.43;71.20;101801.22;6102541;19;20108;-73
2023/03/16 01:42:28;;;;;;;11.68;6.57;;;;;;;5.44;71.36;101792.53;6097488;19;20082;-73
2023/03/16 01:44:53;;;;;;;10.98;6.20;;;;;;;5.44;71.72;101800.34;6103369;19;20018;-73
2023/03/16 01:46:57;;;;;;;12.43;6.50;;;;;;;5.40;72.21;101790.81;6103579;19;20022;-73
2023/03/16 01:49:16;;;;;;;14.65;6.75;;;;;;;5.46;71.84;101793.38;6079870;19;20085;-72
2023/03/16 01:51:25;;;;;;;10.98;5.90;;;;;;;5.42;72.17;101789.03;6101952;19;20025;-73
2023/03/16 01:53:32;;;;;;;10.98;5.78;;;;;;;5.43;71.87;101786.44;6103881;19;20037;-73
2023/03/16 01:55:37;;;;;;;11.00;6.13;;;;;;;5.45;72.09;101787.31;6102089;19;20125;-73
2023/03/16 01:57:48;;;;;;;10.60;6.88;;;;;;;5.44;72.41;101779.47;6102493;19;21084;-73
2023/03/16 01:59:56;;;;;;;13.00;6.28;;;;;;;5.51;72.12;101773.38;6102970;19;20014;-72
2023/03/16 02:02:03;;;;;;;10.40;5.43;;;;;;;5.53;72.30;101773.34;6085132;19;20094;-74
2023/03/16 02:04:18;;;;;;;9.80;5.57;;;;;;;5.54;73.01;101768.16;6102367;19;20099;-73
2023/03/16 02:06:24;;;;;;;11.40;5.72;;;;;;;5.52;73.14;101779.47;6099534;19;20011;-72
2023/03/16 02:08:29;;;;;;;10.60;5.97;;;;;;;5.54;73.21;101768.16;6100408;19;20263;-73
2023/03/16 02:10:35;;;;;;;11.15;5.68;;;;;;;5.52;74.40;101767.28;6103136;19;20003;-73
2023/03/16 02:12:41;;;;;;;12.27;5.53;;;;;;;5.54;74.55;101768.16;6101417;19;20021;-73
2023/03/16 02:14:52;;;;;;;13.52;5.90;;;;;;;5.53;74.97;101766.44;6102102;19;20251;-73
2023/03/16 02:16:58;;;;;;;10.75;6.28;;;;;;;5.48;74.99;101763.84;6102537;19;20090;-72
2023/03/16 02:19:02;;;;;;;14.43;6.22;;;;;;;5.46;75.03;101762.09;6102638;19;20847;-73
2023/03/16 02:21:18;;;;;;;12.07;6.47;;;;;;;5.47;75.65;101753.41;6103928;19;20066;-72
2023/03/16 02:23:25;;;;;;;9.75;6.22;;;;;;;5.45;75.90;101745.59;6103654;19;20021;-72
2023/03/16 02:25:38;;;;;;;16.33;6.80;;;;;;;5.46;76.29;101743.84;6102065;19;20033;-71
2023/03/16 02:27:50;;;;;;;12.30;6.20;;;;;;;5.40;76.02;101741.28;6100810;19;20008;-72
2023/03/16 02:30:04;;;;;;;10.25;5.18;;;;;;;5.35;77.27;101743.06;6101739;19;20011;-73
2023/03/16 02:32:10;;;;;;;9.27;5.93;;;;;;;5.38;77.35;101737.81;6103452;19;20025;-72
2023/03/16 02:34:17;;;;;;;9.27;6.38;;;;;;;5.38;77.09;101736.06;6101942;19;20656;-72
2023/03/16 02:36:22;;;;;;;10.23;6.00;;;;;;;5.38;77.54;101737.81;6102047;19;20833;-72
2023/03/16 02:38:27;;;;;;;11.60;5.78;;;;;;;5.38;77.32;101730.00;6098945;19;20017;-76
2023/03/16 02:40:33;;;;;;;14.15;6.45;;;;;;;5.33;77.77;101732.63;6101687;19;20102;-71
2023/03/16 02:42:38;;;;;;;9.93;6.28;;;;;;;5.32;78.01;101730.00;6102548;19;20010;-71
2023/03/16 02:44:46;;;;;;;11.80;5.97;;;;;;;5.34;78.01;101738.69;6100166;19;20018;-72
2023/03/16 02:46:56;;;;;;;9.63;5.47;;;;;;;5.28;79.20;101734.38;6101436;19;20090;-73
2023/03/16 02:49:05;;;;;;;10.38;6.03;;;;;;;5.26;79.04;101736.97;6102730;19;20041;-74
2023/03/16 02:51:10;;;;;;;13.38;6.10;;;;;;;5.27;79.27;101737.88;6102235;19;20474;-74
2023/03/16 02:53:15;;;;;;;9.20;5.43;;;;;;;5.26;78.83;101729.16;6103807;19;20031;-73
2023/03/16 02:55:20;;;;;;;10.45;6.05;;;;;;;5.25;79.30;101743.06;6102141;19;20010;-72
2023/03/16 02:57:25;;;;;;;14.07;6.25;;;;;;;5.26;79.56;101736.13;6105084;19;20116;-73
2023/03/16 02:59:30;;;;;;;11.75;5.88;;;;;;;5.28;79.61;101729.16;6105791;19;20015;-73
2023/03/16 03:01:35;;;;;;;12.07;6.25;;;;;;;5.29;79.52;101738.69;6104902;19;20010;-73
2023/03/16 03:03:42;;;;;;;13.32;6.00;;;;;;;5.22;80.15;101726.59;6107982;19;20353;-72
2023/03/16 03:05:48;;;;;;;10.38;5.80;;;;;;;5.20;80.59;101721.38;6105317;19;20013;-73
2023/03/16 03:07:52;;;;;;;10.95;5.93;;;;;;;5.17;80.92;101720.53;6104020;19;20034;-73
2023/03/16 03:09:57;;;;;;;11.05;6.30;;;;;;;5.25;80.92;101718.75;6104747;19;20011;-74
2023/03/16 03:12:02;;;;;;;12.20;6.05;;;;;;;5.23;80.65;101720.50;6103776;19;20018;-73
2023/03/16 03:14:07;;;;;;;12.60;6.05;;;;;;;5.22;80.90;101711.81;6102435;19;20062;-73
2023/03/16 03:16:16;;;;;;;9.63;5.63;;;;;;;5.20;80.93;101705.75;6103054;19;20011;-73
2023/03/16 03:18:24;;;;;;;11.43;5.43;;;;;;;5.16;81.24;101705.75;6103427;19;20011;-73
2023/03/16 03:20:31;;;;;;;11.65;6.90;;;;;;;5.17;81.04;101703.16;6099682;19;20625;-73
2023/03/16 03:22:36;;;;;;;14.02;5.35;;;;;;;5.14;81.37;101702.31;6101728;19;20018;-73
2023/03/16 03:24:40;;;;;;;11.25;6.35;;;;;;;5.17;80.89;101697.09;6101978;19;20018;-74
2023/03/16 03:26:45;;;;;;;11.40;5.97;;;;;;;5.19;80.97;101698.81;6101215;19;20014;-73
2023/03/16 03:28:51;;;;;;;13.48;6.07;;;;;;;5.19;80.76;101692.75;6102200;19;20011;-73
2023/03/16 03:30:56;;;;;;;10.15;5.35;;;;;;;5.21;81.05;101693.56;6101605;19;20637;-73
2023/03/16 03:33:00;;;;;;;11.75;5.68;;;;;;;5.23;80.60;101690.09;6100737;19;20010;-73
2023/03/16 03:35:06;;;;;;;12.57;6.10;;;;;;;5.23;81.13;101689.22;6101795;19;20007;-73
2023/03/16 03:37:13;;;;;;;8.57;5.35;;;;;;;5.27;80.47;101691.81;6101427;19;20470;-73
2023/03/16 03:39:18;;;;;;;11.43;5.55;;;;;;;5.24;81.04;101691.84;6101099;19;20018;-73
2023/03/16 03:41:23;;;;;;;12.23;6.35;;;;;;;5.26;80.94;101692.69;6100327;19;20571;-73
2023/03/16 03:43:28;;;;;;;11.77;5.95;;;;;;;5.27;80.69;101684.00;6101032;19;20024;-73
2023/03/16 03:45:33;;;;;;;10.18;5.25;;;;;;;5.25;80.71;101685.75;6100009;19;20078;-73
2023/03/16 03:47:38;;;;;;;10.48;5.22;;;;;;;5.23;81.03;101678.81;6099811;19;20491;-73
2023/03/16 03:49:43;;;;;;;9.73;5.63;;;;;;;5.27;80.60;101681.41;6100714;19;20460;-73
2023/03/16 03:51:48;;;;;;;11.32;5.53;;;;;;;5.26;80.62;101674.44;6099173;19;20741;-73
2023/03/16 03:53:55;;;;;;;12.75;5.80;;;;;;;5.25;80.85;101679.69;6099265;19;20023;-73
2023/03/16 03:56:00;;;;;;;12.35;5.25;;;;;;;5.25;81.13;101680.53;6100395;19;20094;-73
2023/03/16 03:58:05;;;;;;;11.50;5.50;;;;;;;5.28;80.05;101677.03;6097126;19;20014;-74
2023/03/16 04:00:12;;;;;;;9.15;5.35;;;;;;;5.33;80.14;101679.63;6099863;19;20713;-73
2023/03/16 04:02:20;;;;;;;10.38;4.97;;;;;;;5.31;80.48;101678.78;6099158;19;20022;-73
2023/03/16 04:04:24;;;;;;;12.15;5.43;;;;;;;5.32;80.13;101675.28;6099012;19;20269;-74
2023/03/16 04:06:30;;;;;;;9.77;4.82;;;;;;;5.33;80.26;101680.50;6100533;19;20047;-73
2023/03/16 04:08:35;;;;;;;9.95;4.90;;;;;;;5.31;80.98;101678.78;6100846;19;20090;-74
2023/03/16 04:10:43;;;;;;;10.10;5.50;;;;;;;5.28;80.99;101670.09;6101003;19;20019;-73
2023/03/16 04:12:48;;;;;;;9.65;5.15;;;;;;;5.33;80.39;101672.69;6099979;19;20094;-73
2023/03/16 04:14:53;;;;;;;13.95;5.38;;;;;;;5.31;80.89;101676.16;6100173;19;20003;-73
2023/03/16 04:16:58;;;;;;;11.02;4.85;;;;;;;5.31;81.03;101670.94;6100309;19;20016;-73
2023/03/16 04:19:03;;;;;;;12.68;5.15;;;;;;;5.34;80.88;101676.16;6100261;19;20225;-73
2023/03/16 04:21:09;;;;;;;9.73;4.70;;;;;;;5.36;80.73;101663.97;6100128;19;20021;-73
2023/03/16 04:23:16;;;;;;;11.68;4.60;;;;;;;5.35;81.01;101664.88;6100425;19;20038;-73
2023/03/16 04:25:20;;;;;;;10.68;4.90;;;;;;;5.36;81.05;101663.97;6100586;19;20039;-74
2023/03/16 04:27:28;;;;;;;11.23;4.97;;;;;;;5.31;81.58;101666.59;6098429;19;20042;-73
2023/03/16 04:29:33;;;;;;;10.77;5.05;;;;;;;5.31;81.78;101657.91;6100925;19;20090;-73
2023/03/16 04:31:38;;;;;;;8.45;4.38;;;;;;;5.29;82.19;101655.31;6101965;19;20259;-73
2023/03/16 04:33:44;;;;;;;9.20;4.43;;;;;;;5.28;82.45;101651.84;6100804;19;20006;-74
2023/03/16 04:35:51;;;;;;;8.48;4.78;;;;;;;5.27;82.39;101657.94;6099382;19;20098;-74
2023/03/16 04:37:55;;;;;;;10.30;5.03;;;;;;;5.30;82.22;101649.25;6099321;19;20021;-74
2023/03/16 04:40:08;;;;;;;9.55;5.45;;;;;;;5.29;82.63;101652.69;6098555;19;20014;-74
2023/03/16 04:42:15;;;;;;;9.57;5.25;;;;;;;5.26;83.15;101650.13;6098940;19;20014;-73
2023/03/16 04:44:24;;;;;;;9.38;4.03;;;;;;;5.28;82.92;101641.41;6100758;19;20039;-74
2023/03/16 04:46:30;;;;;;;10.60;5.07;;;;;;;5.28;83.28;101641.41;6095860;19;20006;-73
2023/03/16 04:48:34;;;;;;;11.70;4.60;;;;;;;5.21;83.57;101637.13;6098723;19;20010;-73
2023/03/16 04:50:40;;;;;;;9.75;4.82;;;;;;;5.21;83.72;101644.06;6097671;19;20039;-73
2023/03/16 04:52:45;;;;;;;8.38;4.50;;;;;;;5.20;84.09;101629.31;6098355;19;20022;-73
2023/03/16 04:54:50;;;;;;;10.75;4.07;;;;;;;5.19;84.54;101636.28;6099048;19;20041;-73
2023/03/16 04:56:55;;;;;;;8.75;4.53;;;;;;;5.16;84.39;101625.00;6095636;19;20014;-73
2023/03/16 04:59:00;;;;;;;8.05;3.80;;;;;;;5.19;84.58;101622.38;6096550;19;20726;-74
2023/03/16 05:01:07;;;;;;;8.20;4.05;;;;;;;5.17;84.53;101625.00;6097065;19;20074;-74
2023/03/16 05:03:13;;;;;;;8.77;4.35;;;;;;;5.19;84.97;101619.78;6098117;19;20010;-74
2023/03/16 05:05:18;;;;;;;9.10;4.07;;;;;;;5.16;85.10;101623.28;6098188;19;20018;-74
2023/03/16 05:07:23;;;;;;;7.85;3.83;;;;;;;5.10;85.36;101620.69;6094408;19;20067;-74
2023/03/16 05:09:28;;;;;;;10.98;4.18;;;;;;;5.14;85.20;101622.41;6099151;19;20015;-74
2023/03/16 05:11:32;;;;;;;12.38;4.05;;;;;;;5.13;85.09;101619.78;6097560;19;20038;-75
2023/03/16 05:13:37;;;;;;;8.93;4.03;;;;;;;5.12;85.46;101618.94;6097884;19;20015;-74
2023/03/16 05:15:43;;;;;;;8.80;4.00;;;;;;;5.07;86.43;101618.09;6097821;19;20010;-73
2023/03/16 05:17:51;;;;;;;9.32;3.97;;;;;;;5.07;85.94;101607.69;6097668;19;20035;-73
2023/03/16 05:19:55;;;;;;;8.52;4.20;;;;;;;5.11;86.18;101617.22;6097956;19;20014;-72
2023/03/16 05:22:00;;;;;;;11.02;4.15;;;;;;;5.07;86.38;101612.88;6097988;19;20014;-73
2023/03/16 05:24:05;;;;;;;8.07;4.18;;;;;;;5.03;86.52;101605.97;6096430;19;20013;-72
2023/03/16 05:26:12;;;;;;;7.78;3.95;;;;;;;5.03;86.48;101616.41;6098431;19;20090;-73
2023/03/16 05:28:17;;;;;;;8.55;4.30;;;;;;;5.04;86.95;101612.91;6096180;19;20014;-72
2023/03/16 05:30:22;;;;;;;7.55;3.83;;;;;;;5.01;87.04;101598.16;6097055;19;20018;-73
2023/03/16 05:32:27;;;;;;;9.25;4.10;;;;;;;5.00;86.92;101603.38;6095260;19;20007;-73
2023/03/16 05:34:34;;;;;;;7.55;4.45;;;;;;;4.99;86.92;101597.28;6098194;19;20682;-73
2023/03/16 05:36:39;;;;;;;6.97;3.80;;;;;;;5.03;86.97;101595.56;6096938;19;20028;-73
2023/03/16 05:38:44;;;;;;;7.75;3.97;;;;;;;5.00;87.15;101595.56;6096057;19;20051;-73
2023/03/16 05:40:51;;;;;;;9.32;4.20;;;;;;;4.97;87.11;101599.03;6096283;19;20022;-73
2023/03/16 05:42:59;;;;;;;8.88;3.85;;;;;;;4.99;87.21;101596.44;6093122;19;20646;-73
2023/03/16 05:45:04;;;;;;;7.57;3.63;;;;;;;5.02;86.94;101597.28;6095870;19;20018;-73
2023/03/16 05:47:08;;;;;;;8.63;3.75;;;;;;;5.04;86.82;101599.88;6094856;19;20338;-73
2023/03/16 05:49:14;;;;;;;8.38;3.50;;;;;;;5.03;86.77;101592.94;6096996;19;20635;-74
2023/03/16 05:51:25;;;;;;;8.40;3.65;;;;;;;5.07;86.71;101595.50;6096033;19;20014;-74
2023/03/16 05:53:29;;;;;;;7.70;3.55;;;;;;;5.06;86.37;101598.13;6095741;19;20676;-72
2023/03/16 05:55:34;;;;;;;7.82;3.97;;;;;;;5.06;86.75;101590.31;6095217;19;20018;-73
2023/03/16 05:57:40;;;;;;;6.78;3.33;;;;;;;5.03;86.65;101599.03;6096810;19;20027;-73
2023/03/16 05:59:45;;;;;;;7.05;3.40;;;;;;;5.03;86.63;101596.41;6098026;19;20025;-73
2023/03/16 06:01:50;;;;;;;9.65;3.97;;;;;;;5.04;86.79;101594.69;6099260;19;20019;-72
2023/03/16 06:03:55;;;;;;;10.70;3.65;;;;;;;5.03;86.51;101600.78;6098706;19;20010;-73
2023/03/16 06:06:03;;;;;;;7.10;3.40;;;;;;;5.01;86.98;101587.75;6100573;19;20006;-73
2023/03/16 06:08:11;;;;;;;7.88;4.10;;;;;;;5.00;87.08;101599.03;6103317;19;20007;-73
2023/03/16 06:10:18;;;;;;;10.32;4.20;;;;;;;5.00;86.97;101592.94;6103340;19;20082;-74
2023/03/16 06:12:23;;;;;;;6.25;3.28;;;;;;;4.97;86.89;101587.75;6103878;19;20020;-74
2023/03/16 06:14:29;;;;;;;9.85;3.97;;;;;;;4.98;86.67;101584.28;6098421;19;20010;-74
2023/03/16 06:16:33;;;;;;;10.38;4.07;;;;;;;4.94;87.26;101582.56;6102598;19;20007;-74
2023/03/16 06:18:39;;;;;;;10.43;4.03;;;;;;;4.95;87.35;101576.47;6099611;19;20102;-74
2023/03/16 06:20:45;;;;;;;8.02;3.70;;;;;;;4.96;87.15;101583.44;6103774;19;20069;-74
2023/03/16 06:22:52;;;;;;;11.50;4.60;;;;;;;4.91;87.49;101582.59;6104766;19;20015;-74
2023/03/16 06:24:59;;;;;;;7.38;3.80;;;;;;;4.87;87.98;101581.75;6103078;19;20018;-74
2023/03/16 06:27:04;;;;;;;9.38;4.18;;;;;;;4.92;87.82;101574.75;6103403;19;20019;-74
2023/03/16 06:29:09;;;;;;;8.75;4.38;;;;;;;4.95;87.01;101587.78;6100919;19;20039;-73
2023/03/16 06:31:14;;;;;;;10.55;4.43;;;;;;;4.92;86.92;101579.09;6101181;19;20576;-74
2023/03/16 06:33:19;;;;;;;11.07;4.47;;;;;;;4.88;87.56;101590.44;6102081;19;20003;-73
2023/03/16 06:35:24;;;;;;;10.75;4.85;;;;;;;4.91;86.92;101564.38;6102119;19;20098;-74
2023/03/16 06:37:29;;;;;;;12.95;4.65;;;;;;;4.93;87.44;101567.81;6102390;19;20007;-75
2023/03/16 06:39:34;;;;;;;11.57;4.55;;;;;;;4.94;87.30;101553.91;6103167;19;20021;-75
2023/03/16 06:41:45;;;;;;;11.30;4.35;;;;;;;4.92;87.28;101553.06;6101894;19;20002;-76
2023/03/16 06:43:50;;;;;;;9.52;4.95;;;;;;;4.91;87.67;101546.13;6102285;19;20014;-75
2023/03/16 06:45:55;;;;;;;11.68;4.43;;;;;;;4.97;87.27;101546.09;6101020;19;20018;-75
2023/03/16 06:48:00;;;;;;;9.10;4.22;;;;;;;4.96;87.07;101549.56;6101971;19;20007;-74
2023/03/16 06:50:06;;;;;;;13.90;4.57;;;;;;;5.01;86.62;101547.81;6103387;19;20011;-74
2023/03/16 06:52:12;;;;;;;7.78;4.05;;;;;;;4.98;87.18;101550.44;6101983;19;20009;-75
2023/03/16 06:54:20;;;;;;;8.63;3.92;;;;;;;4.95;87.27;101553.94;6101513;19;20055;-74
2023/03/16 06:56:26;;;;;;;8.23;4.28;;;;;;;4.98;86.40;101553.03;6098044;19;20021;-74
2023/03/16 06:58:37;;;;;;;10.35;4.20;;;;;;;4.97;86.70;101556.50;6102072;19;20025;-75
2023/03/16 07:00:43;;;;;;;8.73;4.20;;;;;;;5.01;86.35;101542.59;6101216;19;20014;-75
2023/03/16 07:02:48;;;;;;;10.07;3.92;;;;;;;5.04;85.69;101548.66;6099959;19;20002;-74
2023/03/16 07:04:53;;;;;;;8.68;4.20;;;;;;;5.06;85.75;101546.91;6101305;19;20027;-74
2023/03/16 07:06:58;;;;;;;10.50;4.10;;;;;;;5.06;86.27;101538.22;6104579;19;20038;-74
2023/03/16 07:09:04;;;;;;;13.02;4.88;;;;;;;5.07;85.53;101537.34;6100093;19;20039;-74
2023/03/16 07:11:10;;;;;;;9.70;4.55;;;;;;;5.13;85.25;101544.25;6097464;19;20014;-74
2023/03/16 07:13:15;;;;;;;9.77;4.60;;;;;;;5.16;85.08;101549.44;6097856;19;20010;-74
2023/03/16 07:15:25;;;;;;;11.63;4.60;;;;;;;5.15;84.99;101545.09;6100358;19;20007;-74
2023/03/16 07:17:31;;;;;;;9.77;4.55;;;;;;;5.20;85.59;101543.34;6099834;19;20010;-73
2023/03/16 07:19:35;;;;;;;10.05;4.72;;;;;;;5.27;84.68;101545.03;6099742;19;20014;-73
2023/03/16 07:21:40;;;;;;;7.47;3.53;;;;;;;5.29;84.55;101538.03;6098666;19;20017;-73
2023/03/16 07:23:46;;;;;;;10.93;4.57;;;;;;;5.33;84.40;101531.94;6098888;19;20013;-74
2023/03/16 07:25:51;;;;;;;13.63;4.47;;;;;;;5.35;84.20;101531.94;6097419;19;20679;-73
2023/03/16 07:27:56;;;;;;;10.75;4.60;;;;;;;5.42;83.06;101538.81;6101203;19;20315;-74
2023/03/16 07:30:03;;;;;;;13.52;5.07;;;;;;;5.48;82.94;101538.78;6101333;19;20007;-74
2023/03/16 07:32:11;;;;;;;10.02;4.28;;;;;;;5.49;83.11;101530.94;6099215;19;20019;-73
2023/03/16 07:34:17;;;;;;;8.30;4.35;;;;;;;5.54;82.71;101541.34;6101900;19;20011;-73
2023/03/16 07:36:21;;;;;;;11.38;4.18;;;;;;;5.58;81.44;101539.56;6099459;19;20471;-74
2023/03/16 07:38:26;;;;;;;7.70;4.07;;;;;;;5.63;82.54;101533.41;6096225;19;20010;-74
2023/03/16 07:40:33;;;;;;;10.55;4.30;;;;;;;5.65;82.31;101547.31;6100049;19;20014;-74
2023/03/16 07:42:39;;;;;;;11.35;5.20;;;;;;;5.64;80.92;101545.59;6102727;19;20014;-74
2023/03/16 07:44:44;;;;;;;12.38;4.20;;;;;;;5.67;80.75;101535.13;6099076;19;20038;-75
2023/03/16 07:46:50;;;;;;;14.88;4.07;;;;;;;5.72;81.44;101541.16;6099831;19;20029;-74
2023/03/16 07:48:57;;;;;;;7.07;3.35;;;;;;;5.76;79.60;101541.13;6099604;19;20010;-75
2023/03/16 07:51:02;;;;;;;8.75;4.20;;;;;;;5.76;80.25;101549.81;6101937;19;20014;-75
2023/03/16 07:53:07;;;;;;;8.20;4.22;;;;;;;5.84;79.82;101547.16;6100074;19;20019;-74
2023/03/16 07:55:12;;;;;;;10.68;4.35;;;;;;;5.85;79.60;101544.53;6099308;19;20078;-75
2023/03/16 07:57:18;;;;;;;7.47;3.92;;;;;;;5.90;79.63;101547.09;6100496;19;20545;-75
2023/03/16 07:59:23;;;;;;;7.65;3.50;;;;;;;5.92;79.52;101543.59;6100091;19;20650;-75
2023/03/16 08:01:28;;;;;;;11.52;5.82;;;;;;;5.99;79.04;101544.41;6098858;19;20010;-75
2023/03/16 08:03:33;;;;;;;10.45;3.92;;;;;;;6.02;79.44;101543.53;6076402;19;20563;-75
2023/03/16 08:05:40;;;;;;;8.48;4.50;;;;;;;6.10;78.65;101552.13;6099414;19;20022;-75
2023/03/16 08:07:45;;;;;;;10.07;3.88;;;;;;;6.15;78.28;101547.72;6099085;19;20223;-75
2023/03/16 08:09:50;;;;;;;9.68;4.40;;;;;;;6.19;77.28;101540.72;6097574;19;20017;-75
2023/03/16 08:11:55;;;;;;;6.60;3.67;;;;;;;6.20;77.18;101540.72;6099158;19;20490;-75
2023/03/16 08:14:00;;;;;;;10.27;3.78;;;;;;;6.24;76.73;101538.94;6097455;19;20017;-75
2023/03/16 08:16:09;;;;;;;8.55;3.67;;;;;;;6.23;77.09;101540.69;6096358;19;20014;-75
2023/03/16 08:18:16;;;;;;;7.32;3.22;;;;;;;6.29;77.29;101542.34;6098553;19;20498;-75
2023/03/16 08:20:21;;;;;;;7.97;3.33;;;;;;;6.29;76.58;101535.41;6099163;19;20014;-75
2023/03/16 08:22:29;;;;;;;7.72;3.58;;;;;;;6.31;76.85;101543.22;6094558;19;20013;-75
2023/03/16 08:24:34;;;;;;;8.90;3.95;;;;;;;6.33;76.69;101538.84;6099608;19;20018;-75
2023/03/16 08:26:39;;;;;;;8.75;3.47;;;;;;;6.35;76.02;101537.09;6098255;19;20011;-75
2023/03/16 08:28:46;;;;;;;10.88;4.25;;;;;;;6.41;75.78;101533.53;6097750;19;20051;-74
2023/03/16 08:30:54;;;;;;;9.98;3.40;;;;;;;6.48;75.65;101522.13;6097727;19;20687;-74
2023/03/16 08:33:00;;;;;;;7.05;3.15;;;;;;;6.54;74.05;101537.72;6097913;19;20006;-74
2023/03/16 08:35:05;;;;;;;8.77;3.40;;;;;;;6.58;74.03;101522.00;6095189;19;20015;-74
2023/03/16 08:37:13;;;;;;;9.18;3.80;;;;;;;6.61;74.01;101510.66;6094281;19;20559;-74
2023/03/16 08:39:21;;;;;;;8.63;3.30;;;;;;;6.70;73.73;101541.00;6096277;19;20023;-74
2023/03/16 08:41:29;;;;;;;6.32;3.30;;;;;;;6.76;73.44;101523.47;6096267;19;20006;-74
2023/03/16 08:43:36;;;;;;;10.05;3.45;;;;;;;6.87;72.98;101527.69;6099302;19;20011;-73
2023/03/16 08:45:41;;;;;;;7.68;3.80;;;;;;;6.95;72.62;101526.72;6098340;19;20334;-74
2023/03/16 08:47:46;;;;;;;9.13;4.28;;;;;;;7.08;73.02;101526.50;6098383;19;20063;-73
2023/03/16 08:49:51;;;;;;;9.98;3.92;;;;;;;7.07;72.71;101524.81;6097527;19;20594;-74
2023/03/16 08:51:56;;;;;;;12.75;4.03;;;;;;;7.19;72.47;101516.78;6099549;19;20032;-73
2023/03/16 08:54:00;;;;;;;8.45;3.80;;;;;;;7.21;71.52;101525.44;6098875;19;20006;-73
2023/03/16 08:56:11;;;;;;;9.73;3.97;;;;;;;7.21;71.59;101507.13;6098463;19;20010;-73
2023/03/16 08:58:16;;;;;;;6.13;3.25;;;;;;;7.37;71.20;101523.44;6096825;19;20028;-74
2023/03/16 09:00:22;;;;;;;8.80;4.10;;;;;;;7.41;71.14;101512.06;6098924;19;20077;-74
2023/03/16 09:02:27;;;;;;;10.57;3.90;;;;;;;7.43;70.53;101518.13;6093801;19;20014;-74
2023/03/16 09:04:32;;;;;;;9.30;3.65;;;;;;;7.59;69.89;101513.50;6098076;19;20678;-74
2023/03/16 09:06:38;;;;;;;8.57;3.30;;;;;;;7.57;69.12;101510.06;6099174;19;20683;-74
2023/03/16 09:08:44;;;;;;;7.25;3.20;;;;;;;7.64;69.61;101516.91;6098490;19;20011;-74
2023/03/16 09:10:50;;;;;;;7.38;3.25;;;;;;;7.82;68.42;101500.00;6097780;19;20136;-75
2023/03/16 09:12:57;;;;;;;8.60;3.92;;;;;;;8.19;67.59;101496.66;6097347;19;20095;-74
2023/03/16 09:15:02;;;;;;;7.63;3.60;;;;;;;8.13;67.52;101490.66;6099432;19;20011;-74
2023/03/16 09:17:10;;;;;;;6.53;3.30;;;;;;;8.19;67.10;101488.81;6099222;19;20009;-74
2023/03/16 09:19:15;;;;;;;12.15;4.30;;;;;;;8.27;66.54;101486.94;6100390;19;20026;-73
2023/03/16 09:21:24;;;;;;;8.75;3.22;;;;;;;8.48;66.50;101480.41;6099225;19;20088;-75
2023/03/16 09:23:30;;;;;;;8.57;3.38;;;;;;;8.46;65.77;101504.00;6097776;19;20014;-73
2023/03/16 09:25:35;;;;;;;8.55;3.60;;;;;;;8.61;64.99;101496.69;6100735;19;20022;-74
2023/03/16 09:27:40;;;;;;;11.18;3.80;;;;;;;8.54;64.67;101502.09;6100623;19;20626;-75
2023/03/16 09:29:54;;;;;;;8.65;3.85;;;;;;;8.68;64.79;101499.16;6099275;19;20645;-73
2023/03/16 09:31:59;;;;;;;8.48;3.90;;;;;;;8.85;64.42;101503.19;6058573;19;20094;-73
2023/03/16 09:34:04;;;;;;;8.13;3.58;;;;;;;8.84;63.84;101494.44;6101773;19;20678;-74
2023/03/16 09:36:10;;;;;;;8.27;4.22;;;;;;;8.95;64.21;101495.06;6102598;19;20639;-73
2023/03/16 09:38:16;;;;;;;7.38;3.38;;;;;;;9.22;64.09;101490.06;6104108;19;20600;-74
2023/03/16 09:40:25;;;;;;;8.73;3.88;;;;;;;9.14;62.81;101490.25;6101925;19;20118;-74
2023/03/16 09:42:35;;;;;;;9.13;4.60;;;;;;;9.14;63.17;101481.53;6097000;19;20018;-74
2023/03/16 09:44:48;;;;;;;6.57;3.40;;;;;;;9.20;61.61;101482.22;6099184;19;20688;-74
2023/03/16 09:46:58;;;;;;;8.27;3.13;;;;;;;9.18;62.02;101476.16;6099402;19;20015;-74
2023/03/16 09:49:03;;;;;;;5.65;2.67;;;;;;;9.42;62.16;101481.69;6096382;19;20574;-74
2023/03/16 09:51:16;;;;;;;8.88;3.38;;;;;;;9.58;62.04;101476.91;6097687;19;20015;-74